Buoy 44845

sailwx.info

Track history (hours):
 
Tides and Currents Weather Stations Pressure Air Temp Water Temp Dewpoint Dewpoint Depression Visibility Wind Speed Wind Dir Waves Ship Positions

Drifting buoy 44845

Last reported at 2014-Jul-23 11:01 UTC. Time now 2014-Jul-23 11:59 UTC.
Position N 62°59' W 008°00'.

Water temperature 11.2 ° C

Date/timePositionNaut miles runAvg speedWind from/ knotsBaromVisibWave heightAir tempDewpointWater temp
2014-Jul-23 11:01N 62°59' W 008°00'0 0.2 11.2
2014-Jul-23 10:01N 62°59' W 008°01'1 0.8 11.1
2014-Jul-23 09:01N 62°59' W 008°02'1 1.3 11.1
2014-Jul-23 08:01N 62°58' W 008°04'1 1.5 11.1
2014-Jul-23 07:01N 62°57' W 008°06'1 1.3 11.0
2014-Jul-23 06:01N 62°56' W 008°09'1 1.3 10.9
2014-Jul-23 05:01N 62°55' W 008°11'1 1.2 11.0
2014-Jul-23 04:01N 62°54' W 008°12'1 0.7 11.0
2014-Jul-23 03:01N 62°54' W 008°14'0 0.5 11.0
2014-Jul-23 02:01N 62°53' W 008°14'0 0.3 11.1
2014-Jul-23 01:01N 62°53' W 008°15'0 0.3 11.1
2014-Jul-23 00:01N 62°54' W 008°15'1 0.6 11.0
2014-Jul-22 22:01N 62°54' W 008°18'1 0.8 11.0
2014-Jul-22 21:01N 62°54' W 008°19'1 0.8 11.1
2014-Jul-22 20:01N 62°54' W 008°21'2 0.9 11.1
2014-Jul-22 18:01N 62°54' W 008°25'1 0.8 11.1
2014-Jul-22 17:01N 62°54' W 008°26'1 0.6 11.1
2014-Jul-22 16:01N 62°53' W 008°27'0 0.3 11.1
2014-Jul-22 15:01N 62°53' W 008°28'0 0.1 11.1
2014-Jul-22 14:01N 62°53' W 008°28'0 0.3 11.0
2014-Jul-22 13:01N 62°54' W 008°28'1 0.6 11.0
2014-Jul-22 12:01N 62°54' W 008°28'1 0.8 11.0
2014-Jul-22 11:01N 62°55' W 008°28'1 0.8 11.0
2014-Jul-22 10:01N 62°56' W 008°28'1 1.0 11.0
2014-Jul-22 09:01N 62°57' W 008°30'1 0.9 11.0
2014-Jul-22 08:01N 62°57' W 008°32'1 0.9 11.0
2014-Jul-22 07:01N 62°57' W 008°33'1 0.8 11.0
2014-Jul-22 06:01N 62°57' W 008°35'1 0.7 11.0
2014-Jul-22 05:01N 62°57' W 008°37'0 0.5 11.0
2014-Jul-22 04:01N 62°56' W 008°37'0 0.4 11.1
2014-Jul-22 03:01N 62°56' W 008°38'0 0.2 11.1
2014-Jul-22 02:01N 62°56' W 008°37'0 0.4 11.1
2014-Jul-22 01:01N 62°56' W 008°37'1 0.8 11.1
2014-Jul-22 00:01N 62°57' W 008°36'1 1.0 11.1
2014-Jul-21 23:01N 62°58' W 008°35'1 1.0 11.1
2014-Jul-21 22:01N 62°59' W 008°35'1 0.9 11.1
2014-Jul-21 21:01N 62°60' W 008°35'1 0.6 11.2
2014-Jul-21 20:01N 63°00' W 008°36'1 0.5 11.2
2014-Jul-21 19:01N 63°00' W 008°37'0 0.4 11.2
2014-Jul-21 18:01N 63°00' W 008°38'0 0.3 11.2
2014-Jul-21 17:01N 63°00' W 008°39'0 0.4 11.2
2014-Jul-21 16:01N 63°01' W 008°39'0 0.4 11.3
2014-Jul-21 15:01N 63°01' W 008°40'0 0.2 11.4
2014-Jul-21 14:01N 63°01' W 008°40'0 0.1 11.5
2014-Jul-21 13:01N 63°01' W 008°40'0 0.3 12.0
2014-Jul-21 12:01N 63°01' W 008°40'1 0.6 11.9
2014-Jul-21 11:01N 63°02' W 008°39'1 0.8 11.3
2014-Jul-21 10:01N 63°02' W 008°38'1 0.8 11.2
2014-Jul-21 09:01N 63°03' W 008°38'1 0.8 11.2
2014-Jul-21 08:01N 63°04' W 008°38'1 0.8 11.2
2014-Jul-21 07:01N 63°04' W 008°40'1 0.8 11.2
2014-Jul-21 06:01N 63°05' W 008°41'1 0.9 11.2
2014-Jul-21 05:01N 63°04' W 008°43'1 0.9 11.2
2014-Jul-21 04:01N 63°04' W 008°45'1 0.7 11.2
2014-Jul-21 03:01N 63°03' W 008°46'1 0.5 11.2
2014-Jul-21 02:01N 63°03' W 008°46'1 0.5 11.2
2014-Jul-21 01:01N 63°03' W 008°45'1 0.6 11.1
2014-Jul-21 00:01N 63°03' W 008°44'1 0.6 11.2
2014-Jul-20 23:01N 63°03' W 008°43'1 0.7 11.2
2014-Jul-20 22:01N 63°03' W 008°42'1 0.8 11.1
2014-Jul-20 21:01N 63°04' W 008°41'1 0.7 11.2
2014-Jul-20 20:01N 63°05' W 008°41'0 0.5 11.2
2014-Jul-20 19:01N 63°05' W 008°41'1 0.6 11.2
2014-Jul-20 18:01N 63°06' W 008°42'1 0.7 11.2
2014-Jul-20 17:01N 63°06' W 008°44'1 0.8 11.2
2014-Jul-20 16:01N 63°05' W 008°46'1 0.8 11.2
2014-Jul-20 15:01N 63°05' W 008°47'1 0.7 11.1
2014-Jul-20 14:01N 63°04' W 008°48'1 0.6 11.0
2014-Jul-20 13:01N 63°04' W 008°47'1 0.8 11.1
2014-Jul-20 12:01N 63°04' W 008°46'1 0.9 11.2
2014-Jul-20 11:01N 63°04' W 008°44'1 1.0 11.2
2014-Jul-20 10:01N 63°04' W 008°42'1 1.2 11.3
2014-Jul-20 09:01N 63°05' W 008°40'1 1.0 11.2
2014-Jul-20 08:01N 63°06' W 008°39'1 0.7 11.2
2014-Jul-20 07:01N 63°07' W 008°39'1 0.6 11.2
2014-Jul-20 06:01N 63°07' W 008°41'0 0.5 11.2
2014-Jul-20 05:01N 63°07' W 008°42'1 0.5 11.1
2014-Jul-20 04:01N 63°07' W 008°43'1 0.7 11.1
2014-Jul-20 03:01N 63°06' W 008°44'1 0.5 11.2
2014-Jul-20 02:01N 63°06' W 008°44'1 0.6 11.2
2014-Jul-20 01:01N 63°05' W 008°43'1 0.6 11.2
2014-Jul-20 00:01N 63°05' W 008°42'1 0.8 11.1
2014-Jul-19 23:01N 63°05' W 008°40'1 0.9 11.1
2014-Jul-19 22:01N 63°05' W 008°38'1 0.9 11.0
2014-Jul-19 21:01N 63°06' W 008°36'1 1.1 11.0
2014-Jul-19 20:01N 63°06' W 008°34'1 0.9 11.1
2014-Jul-19 19:01N 63°07' W 008°33'1 0.6 11.1
2014-Jul-19 18:01N 63°07' W 008°32'0 0.3 11.1
2014-Jul-19 17:01N 63°07' W 008°31'0 0.2 11.0
2014-Jul-19 16:01N 63°07' W 008°31'1 0.5 12.2
2014-Jul-19 14:01N 63°06' W 008°30'1 0.6 12.2
2014-Jul-19 13:01N 63°06' W 008°29'1 0.7 12.2
2014-Jul-19 12:01N 63°05' W 008°28'1 0.9 12.1
2014-Jul-19 11:01N 63°05' W 008°26'1 1.1 12.1
2014-Jul-19 10:01N 63°05' W 008°24'1 1.3 12.1
2014-Jul-19 09:01N 63°05' W 008°21'1 1.4 12.1
2014-Jul-19 08:01N 63°05' W 008°18'1 1.1 12.1
2014-Jul-19 07:01N 63°05' W 008°16'1 0.7 12.1
2014-Jul-19 06:01N 63°05' W 008°14'0 0.2 12.0
2014-Jul-19 05:01N 63°05' W 008°14'1 0.5 12.0
2014-Jul-19 04:01N 63°05' W 008°14'1 0.9 12.1
2014-Jul-19 03:01N 63°04' W 008°14'1 1.2 12.1
2014-Jul-19 02:01N 63°03' W 008°15'1 1.3 12.2
2014-Jul-19 01:01N 63°01' W 008°15'1 1.1 12.3
2014-Jul-19 00:01N 63°00' W 008°15'1 1.0 12.3
2014-Jul-18 23:01N 62°59' W 008°14'1 0.9 12.3
2014-Jul-18 22:01N 62°58' W 008°13'1 0.7 12.3
2014-Jul-18 21:01N 62°58' W 008°12'1 0.6 12.3
2014-Jul-18 20:01N 62°57' W 008°12'0 0.5 12.4
2014-Jul-18 19:01N 62°57' W 008°11'0 0.1 12.4
2014-Jul-18 18:01N 62°57' W 008°11'0 0.5 12.4
2014-Jul-18 17:01N 62°57' W 008°12'1 0.8 12.5
2014-Jul-18 16:01N 62°56' W 008°13'1 0.9 12.6
2014-Jul-18 15:01N 62°56' W 008°14'1 1.0 12.6
2014-Jul-18 14:01N 62°55' W 008°16'1 1.3 12.5
2014-Jul-18 13:01N 62°55' W 008°19'1 1.3 12.4
2014-Jul-18 12:01N 62°54' W 008°21'1 1.0 12.4
2014-Jul-18 11:01N 62°53' W 008°22'1 0.7 12.3
2014-Jul-18 10:01N 62°53' W 008°24'1 0.6 12.3
2014-Jul-18 09:01N 62°53' W 008°25'0 0.3 12.2
2014-Jul-18 08:01N 62°53' W 008°26'0 0.3 12.2
2014-Jul-18 07:01N 62°53' W 008°26'1 0.7 12.3
2014-Jul-18 06:01N 62°54' W 008°27'1 0.9 12.3
2014-Jul-18 05:01N 62°54' W 008°28'1 1.1 12.2
2014-Jul-18 04:01N 62°55' W 008°30'1 1.3 12.1
2014-Jul-18 03:01N 62°54' W 008°33'1 1.4 12.3
2014-Jul-18 02:01N 62°54' W 008°36'1 1.4 12.3
2014-Jul-18 01:01N 62°53' W 008°39'1 1.1 12.3
2014-Jul-18 00:01N 62°53' W 008°41'1 0.6 12.3
2014-Jul-17 22:01N 62°52' W 008°44'0 0.3 12.4
2014-Jul-17 21:01N 62°52' W 008°44'0 0.3 12.4
2014-Jul-17 20:01N 62°53' W 008°45'1 0.6 12.4
2014-Jul-17 19:01N 62°53' W 008°45'1 0.5 12.4
2014-Jul-17 18:01N 62°54' W 008°45'1 0.7 12.4
2014-Jul-17 17:01N 62°55' W 008°45'1 0.7 12.4
2014-Jul-17 16:01N 62°55' W 008°46'1 0.6 12.4
2014-Jul-17 15:01N 62°55' W 008°47'1 0.7 12.3
2014-Jul-17 14:01N 62°56' W 008°49'1 1.1 12.3
2014-Jul-17 13:01N 62°56' W 008°51'1 1.0 12.3
2014-Jul-17 12:01N 62°56' W 008°53'1 0.9 12.1
2014-Jul-17 11:01N 62°55' W 008°55'0 0.5 12.1
2014-Jul-17 10:01N 62°55' W 008°56'0 0.2 12.0
2014-Jul-17 08:01N 62°55' W 008°55'1 0.8 11.9
2014-Jul-17 07:01N 62°55' W 008°54'1 1.0 11.9
2014-Jul-17 06:01N 62°56' W 008°53'2 1.8 11.9
2014-Jul-17 05:01N 62°58' W 008°54'0 0.0 11.9
2014-Jul-17 04:01N 62°58' W 008°54'1 0.9 11.9
2014-Jul-17 03:01N 62°59' W 008°55'1 1.0 11.9
2014-Jul-17 02:01N 62°59' W 008°57'1 1.1 12.0
2014-Jul-17 01:01N 62°59' W 008°60'1 1.4 12.0
2014-Jul-17 00:01N 62°58' W 009°03'1 1.4 12.0
2014-Jul-16 23:01N 62°57' W 009°05'1 1.1 12.0
2014-Jul-16 22:01N 62°57' W 009°06'1 0.9 12.0
2014-Jul-16 21:01N 62°56' W 009°07'1 0.6 12.0
2014-Jul-16 20:01N 62°55' W 009°06'1 0.7 12.0
2014-Jul-16 19:01N 62°55' W 009°05'1 0.8 12.0
2014-Jul-16 18:01N 62°55' W 009°03'2 0.8 12.0
2014-Jul-16 16:01N 62°57' W 009°01'1 0.7 12.0
2014-Jul-16 15:01N 62°57' W 009°02'1 0.9 12.0
2014-Jul-16 14:01N 62°58' W 009°03'1 1.2 12.0
2014-Jul-16 13:01N 62°58' W 009°06'2 1.5 12.0
2014-Jul-16 12:01N 62°57' W 009°09'2 1.6 11.9
2014-Jul-16 11:01N 62°56' W 009°11'1 1.3 11.9
2014-Jul-16 10:01N 62°54' W 009°12'1 1.1 11.8
2014-Jul-16 09:01N 62°53' W 009°12'1 0.9 11.9
2014-Jul-16 08:01N 62°52' W 009°12'1 0.6 11.9
2014-Jul-16 07:01N 62°52' W 009°11'1 0.7 11.9
2014-Jul-16 06:01N 62°51' W 009°10'1 0.7 11.9
2014-Jul-16 05:01N 62°51' W 009°09'0 0.4 12.1
2014-Jul-16 04:01N 62°51' W 009°08'0 0.4 12.1
2014-Jul-16 03:01N 62°52' W 009°08'1 0.7 12.2
2014-Jul-16 02:01N 62°52' W 009°09'1 1.4 12.1
2014-Jul-16 01:01N 62°52' W 009°12'2 2.0 12.2
2014-Jul-16 00:01N 62°51' W 009°16'2 2.2 12.3
2014-Jul-15 23:01N 62°49' W 009°19'2 2.2 12.3
2014-Jul-15 22:01N 62°47' W 009°21'2 1.9 12.4
2014-Jul-15 21:01N 62°45' W 009°22'2 1.5 12.4
2014-Jul-15 20:01N 62°44' W 009°22'1 1.1 12.4
2014-Jul-15 19:01N 62°43' W 009°21'1 0.9 12.4
2014-Jul-15 18:01N 62°42' W 009°19'1 0.7 12.4
2014-Jul-15 17:01N 62°42' W 009°18'1 0.6 12.3
2014-Jul-15 16:01N 62°43' W 009°17'0 0.4 12.3
2014-Jul-15 15:01N 62°43' W 009°17'1 0.6 12.3
2014-Jul-15 14:01N 62°44' W 009°18'1 0.9 12.2
2014-Jul-15 13:01N 62°43' W 009°20'1 1.2 12.2
2014-Jul-15 12:01N 62°43' W 009°22'1 1.4 12.1
2014-Jul-15 11:01N 62°42' W 009°24'1 1.5 12.1
2014-Jul-15 10:01N 62°41' W 009°27'1 1.3 12.1
2014-Jul-15 09:01N 62°40' W 009°28'1 0.9 12.1
2014-Jul-15 08:01N 62°39' W 009°28'1 0.6 12.0
2014-Jul-15 07:01N 62°38' W 009°28'0 0.4 12.0
2014-Jul-15 06:01N 62°38' W 009°27'1 0.6 12.0
2014-Jul-15 05:01N 62°38' W 009°26'1 0.5 12.0
2014-Jul-15 04:01N 62°39' W 009°25'1 0.5 12.0
2014-Jul-15 03:01N 62°39' W 009°25'1 0.5 12.0
2014-Jul-15 02:01N 62°39' W 009°25'1 0.7 12.0
2014-Jul-15 01:01N 62°40' W 009°26'1 0.9 12.0
2014-Jul-15 00:01N 62°40' W 009°28'1 1.1 12.0
2014-Jul-14 23:01N 62°39' W 009°30'1 1.3 12.0
2014-Jul-14 22:01N 62°38' W 009°32'1 1.2 12.0
2014-Jul-14 21:01N 62°37' W 009°34'1 1.0 12.0
2014-Jul-14 20:01N 62°36' W 009°35'1 0.7 12.0
2014-Jul-14 19:01N 62°36' W 009°35'0 0.3 12.1
2014-Jul-14 18:01N 62°35' W 009°35'0 0.4 12.1
2014-Jul-14 17:01N 62°35' W 009°34'0 0.5 12.1
2014-Jul-14 16:01N 62°36' W 009°34'0 0.4 12.0
2014-Jul-14 15:01N 62°36' W 009°34'0 0.4 12.0
2014-Jul-14 14:01N 62°37' W 009°34'0 0.5 12.0
2014-Jul-14 13:01N 62°37' W 009°34'1 0.7 12.0
2014-Jul-14 12:01N 62°37' W 009°36'1 0.9 11.9
2014-Jul-14 11:01N 62°37' W 009°37'1 0.9 11.9
2014-Jul-14 10:01N 62°36' W 009°39'1 1.1 11.8
2014-Jul-14 09:01N 62°35' W 009°41'1 0.9 11.8
2014-Jul-14 08:01N 62°35' W 009°42'0 0.5 11.8
2014-Jul-14 07:01N 62°34' W 009°42'0 0.1 11.7
2014-Jul-14 06:01N 62°34' W 009°43'0 0.1 11.7
2014-Jul-14 05:01N 62°34' W 009°42'0 0.3 11.7
2014-Jul-14 04:01N 62°34' W 009°42'1 0.5 11.7
2014-Jul-14 03:01N 62°35' W 009°41'1 0.7 11.7
2014-Jul-14 02:01N 62°36' W 009°41'1 0.7 11.7
2014-Jul-14 01:01N 62°36' W 009°42'1 0.7 11.7
2014-Jul-14 00:01N 62°36' W 009°43'1 0.9 11.7
2014-Jul-13 23:01N 62°36' W 009°45'1 1.0 11.8
2014-Jul-13 22:01N 62°36' W 009°47'1 1.1 11.8
2014-Jul-13 21:01N 62°36' W 009°50'1 0.9 11.8
2014-Jul-13 20:01N 62°35' W 009°51'1 0.8 11.9
2014-Jul-13 19:01N 62°35' W 009°53'1 0.7 11.9
2014-Jul-13 18:01N 62°35' W 009°54'0 0.5 11.9
2014-Jul-13 17:01N 62°35' W 009°55'0 0.1 11.9
2014-Jul-13 16:01N 62°35' W 009°55'0 0.2 11.9
2014-Jul-13 15:01N 62°35' W 009°55'1 0.6 11.9
2014-Jul-13 14:01N 62°36' W 009°55'1 0.9 11.8
2014-Jul-13 13:01N 62°37' W 009°55'1 1.0 11.9
2014-Jul-13 12:01N 62°37' W 009°57'1 1.1 11.9
2014-Jul-13 11:01N 62°38' W 009°59'   11.7
Track history (hours):
 
Tides and Currents Weather Stations Pressure Air Temp Water Temp Dewpoint Dewpoint Depression Visibility Wind Speed Wind Dir Waves Ship Positions

Drifting buoy 44845

Last reported at 2014-Jul-23 11:01 UTC. Time now 2014-Jul-23 11:59 UTC.
Position N 62°59' W 008°00'.

Water temperature 11.2 ° C

Date/timePositionNaut miles runAvg speedWind from/ knotsBaromVisibWave heightAir tempDewpointWater temp
2014-Jul-23 11:01N 62°59' W 008°00'0 0.2 11.2
2014-Jul-23 10:01N 62°59' W 008°01'1 0.8 11.1
2014-Jul-23 09:01N 62°59' W 008°02'1 1.3 11.1
2014-Jul-23 08:01N 62°58' W 008°04'1 1.5 11.1
2014-Jul-23 07:01N 62°57' W 008°06'1 1.3 11.0
2014-Jul-23 06:01N 62°56' W 008°09'1 1.3 10.9
2014-Jul-23 05:01N 62°55' W 008°11'1 1.2 11.0
2014-Jul-23 04:01N 62°54' W 008°12'1 0.7 11.0
2014-Jul-23 03:01N 62°54' W 008°14'0 0.5 11.0
2014-Jul-23 02:01N 62°53' W 008°14'0 0.3 11.1
2014-Jul-23 01:01N 62°53' W 008°15'0 0.3 11.1
2014-Jul-23 00:01N 62°54' W 008°15'1 0.6 11.0
2014-Jul-22 22:01N 62°54' W 008°18'1 0.8 11.0
2014-Jul-22 21:01N 62°54' W 008°19'1 0.8 11.1
2014-Jul-22 20:01N 62°54' W 008°21'2 0.9 11.1
2014-Jul-22 18:01N 62°54' W 008°25'1 0.8 11.1
2014-Jul-22 17:01N 62°54' W 008°26'1 0.6 11.1
2014-Jul-22 16:01N 62°53' W 008°27'0 0.3 11.1
2014-Jul-22 15:01N 62°53' W 008°28'0 0.1 11.1
2014-Jul-22 14:01N 62°53' W 008°28'0 0.3 11.0
2014-Jul-22 13:01N 62°54' W 008°28'1 0.6 11.0
2014-Jul-22 12:01N 62°54' W 008°28'1 0.8 11.0
2014-Jul-22 11:01N 62°55' W 008°28'1 0.8 11.0
2014-Jul-22 10:01N 62°56' W 008°28'1 1.0 11.0
2014-Jul-22 09:01N 62°57' W 008°30'1 0.9 11.0
2014-Jul-22 08:01N 62°57' W 008°32'1 0.9 11.0
2014-Jul-22 07:01N 62°57' W 008°33'1 0.8 11.0
2014-Jul-22 06:01N 62°57' W 008°35'1 0.7 11.0
2014-Jul-22 05:01N 62°57' W 008°37'0 0.5 11.0
2014-Jul-22 04:01N 62°56' W 008°37'0 0.4 11.1
2014-Jul-22 03:01N 62°56' W 008°38'0 0.2 11.1
2014-Jul-22 02:01N 62°56' W 008°37'0 0.4 11.1
2014-Jul-22 01:01N 62°56' W 008°37'1 0.8 11.1
2014-Jul-22 00:01N 62°57' W 008°36'1 1.0 11.1
2014-Jul-21 23:01N 62°58' W 008°35'1 1.0 11.1
2014-Jul-21 22:01N 62°59' W 008°35'1 0.9 11.1
2014-Jul-21 21:01N 62°60' W 008°35'1 0.6 11.2
2014-Jul-21 20:01N 63°00' W 008°36'1 0.5 11.2
2014-Jul-21 19:01N 63°00' W 008°37'0 0.4 11.2
2014-Jul-21 18:01N 63°00' W 008°38'0 0.3 11.2
2014-Jul-21 17:01N 63°00' W 008°39'0 0.4 11.2
2014-Jul-21 16:01N 63°01' W 008°39'0 0.4 11.3
2014-Jul-21 15:01N 63°01' W 008°40'0 0.2 11.4
2014-Jul-21 14:01N 63°01' W 008°40'0 0.1 11.5
2014-Jul-21 13:01N 63°01' W 008°40'0 0.3 12.0
2014-Jul-21 12:01N 63°01' W 008°40'1 0.6 11.9
2014-Jul-21 11:01N 63°02' W 008°39'1 0.8 11.3
2014-Jul-21 10:01N 63°02' W 008°38'1 0.8 11.2
2014-Jul-21 09:01N 63°03' W 008°38'1 0.8 11.2
2014-Jul-21 08:01N 63°04' W 008°38'1 0.8 11.2
2014-Jul-21 07:01N 63°04' W 008°40'1 0.8 11.2
2014-Jul-21 06:01N 63°05' W 008°41'1 0.9 11.2
2014-Jul-21 05:01N 63°04' W 008°43'1 0.9 11.2
2014-Jul-21 04:01N 63°04' W 008°45'1 0.7 11.2
2014-Jul-21 03:01N 63°03' W 008°46'1 0.5 11.2
2014-Jul-21 02:01N 63°03' W 008°46'1 0.5 11.2
2014-Jul-21 01:01N 63°03' W 008°45'1 0.6 11.1
2014-Jul-21 00:01N 63°03' W 008°44'1 0.6 11.2
2014-Jul-20 23:01N 63°03' W 008°43'1 0.7 11.2
2014-Jul-20 22:01N 63°03' W 008°42'1 0.8 11.1
2014-Jul-20 21:01N 63°04' W 008°41'1 0.7 11.2
2014-Jul-20 20:01N 63°05' W 008°41'0 0.5 11.2
2014-Jul-20 19:01N 63°05' W 008°41'1 0.6 11.2
2014-Jul-20 18:01N 63°06' W 008°42'1 0.7 11.2
2014-Jul-20 17:01N 63°06' W 008°44'1 0.8 11.2
2014-Jul-20 16:01N 63°05' W 008°46'1 0.8 11.2
2014-Jul-20 15:01N 63°05' W 008°47'1 0.7 11.1
2014-Jul-20 14:01N 63°04' W 008°48'1 0.6 11.0
2014-Jul-20 13:01N 63°04' W 008°47'1 0.8 11.1
2014-Jul-20 12:01N 63°04' W 008°46'1 0.9 11.2
2014-Jul-20 11:01N 63°04' W 008°44'1 1.0 11.2
2014-Jul-20 10:01N 63°04' W 008°42'1 1.2 11.3
2014-Jul-20 09:01N 63°05' W 008°40'1 1.0 11.2
2014-Jul-20 08:01N 63°06' W 008°39'1 0.7 11.2
2014-Jul-20 07:01N 63°07' W 008°39'1 0.6 11.2
2014-Jul-20 06:01N 63°07' W 008°41'0 0.5 11.2
2014-Jul-20 05:01N 63°07' W 008°42'1 0.5 11.1
2014-Jul-20 04:01N 63°07' W 008°43'1 0.7 11.1
2014-Jul-20 03:01N 63°06' W 008°44'1 0.5 11.2
2014-Jul-20 02:01N 63°06' W 008°44'1 0.6 11.2
2014-Jul-20 01:01N 63°05' W 008°43'1 0.6 11.2
2014-Jul-20 00:01N 63°05' W 008°42'1 0.8 11.1
2014-Jul-19 23:01N 63°05' W 008°40'1 0.9 11.1
2014-Jul-19 22:01N 63°05' W 008°38'1 0.9 11.0
2014-Jul-19 21:01N 63°06' W 008°36'1 1.1 11.0
2014-Jul-19 20:01N 63°06' W 008°34'1 0.9 11.1
2014-Jul-19 19:01N 63°07' W 008°33'1 0.6 11.1
2014-Jul-19 18:01N 63°07' W 008°32'0 0.3 11.1
2014-Jul-19 17:01N 63°07' W 008°31'0 0.2 11.0
2014-Jul-19 16:01N 63°07' W 008°31'1 0.5 12.2
2014-Jul-19 14:01N 63°06' W 008°30'1 0.6 12.2
2014-Jul-19 13:01N 63°06' W 008°29'1 0.7 12.2
2014-Jul-19 12:01N 63°05' W 008°28'1 0.9 12.1
2014-Jul-19 11:01N 63°05' W 008°26'1 1.1 12.1
2014-Jul-19 10:01N 63°05' W 008°24'1 1.3 12.1
2014-Jul-19 09:01N 63°05' W 008°21'1 1.4 12.1
2014-Jul-19 08:01N 63°05' W 008°18'1 1.1 12.1
2014-Jul-19 07:01N 63°05' W 008°16'1 0.7 12.1
2014-Jul-19 06:01N 63°05' W 008°14'0 0.2 12.0
2014-Jul-19 05:01N 63°05' W 008°14'1 0.5 12.0
2014-Jul-19 04:01N 63°05' W 008°14'1 0.9 12.1
2014-Jul-19 03:01N 63°04' W 008°14'1 1.2 12.1
2014-Jul-19 02:01N 63°03' W 008°15'1 1.3 12.2
2014-Jul-19 01:01N 63°01' W 008°15'1 1.1 12.3
2014-Jul-19 00:01N 63°00' W 008°15'1 1.0 12.3
2014-Jul-18 23:01N 62°59' W 008°14'1 0.9 12.3
2014-Jul-18 22:01N 62°58' W 008°13'1 0.7 12.3
2014-Jul-18 21:01N 62°58' W 008°12'1 0.6 12.3
2014-Jul-18 20:01N 62°57' W 008°12'0 0.5 12.4
2014-Jul-18 19:01N 62°57' W 008°11'0 0.1 12.4
2014-Jul-18 18:01N 62°57' W 008°11'0 0.5 12.4
2014-Jul-18 17:01N 62°57' W 008°12'1 0.8 12.5
2014-Jul-18 16:01N 62°56' W 008°13'1 0.9 12.6
2014-Jul-18 15:01N 62°56' W 008°14'1 1.0 12.6
2014-Jul-18 14:01N 62°55' W 008°16'1 1.3 12.5
2014-Jul-18 13:01N 62°55' W 008°19'1 1.3 12.4
2014-Jul-18 12:01N 62°54' W 008°21'1 1.0 12.4
2014-Jul-18 11:01N 62°53' W 008°22'1 0.7 12.3
2014-Jul-18 10:01N 62°53' W 008°24'1 0.6 12.3
2014-Jul-18 09:01N 62°53' W 008°25'0 0.3 12.2
2014-Jul-18 08:01N 62°53' W 008°26'0 0.3 12.2
2014-Jul-18 07:01N 62°53' W 008°26'1 0.7 12.3
2014-Jul-18 06:01N 62°54' W 008°27'1 0.9 12.3
2014-Jul-18 05:01N 62°54' W 008°28'1 1.1 12.2
2014-Jul-18 04:01N 62°55' W 008°30'1 1.3 12.1
2014-Jul-18 03:01N 62°54' W 008°33'1 1.4 12.3
2014-Jul-18 02:01N 62°54' W 008°36'1 1.4 12.3
2014-Jul-18 01:01N 62°53' W 008°39'1 1.1 12.3
2014-Jul-18 00:01N 62°53' W 008°41'1 0.6 12.3
2014-Jul-17 22:01N 62°52' W 008°44'0 0.3 12.4
2014-Jul-17 21:01N 62°52' W 008°44'0 0.3 12.4
2014-Jul-17 20:01N 62°53' W 008°45'1 0.6 12.4
2014-Jul-17 19:01N 62°53' W 008°45'1 0.5 12.4
2014-Jul-17 18:01N 62°54' W 008°45'1 0.7 12.4
2014-Jul-17 17:01N 62°55' W 008°45'1 0.7 12.4
2014-Jul-17 16:01N 62°55' W 008°46'1 0.6 12.4
2014-Jul-17 15:01N 62°55' W 008°47'1 0.7 12.3
2014-Jul-17 14:01N 62°56' W 008°49'1 1.1 12.3
2014-Jul-17 13:01N 62°56' W 008°51'1 1.0 12.3
2014-Jul-17 12:01N 62°56' W 008°53'1 0.9 12.1
2014-Jul-17 11:01N 62°55' W 008°55'0 0.5 12.1
2014-Jul-17 10:01N 62°55' W 008°56'0 0.2 12.0
2014-Jul-17 08:01N 62°55' W 008°55'1 0.8 11.9
2014-Jul-17 07:01N 62°55' W 008°54'1 1.0 11.9
2014-Jul-17 06:01N 62°56' W 008°53'2 1.8 11.9
2014-Jul-17 05:01N 62°58' W 008°54'0 0.0 11.9
2014-Jul-17 04:01N 62°58' W 008°54'1 0.9 11.9
2014-Jul-17 03:01N 62°59' W 008°55'1 1.0 11.9
2014-Jul-17 02:01N 62°59' W 008°57'1 1.1 12.0
2014-Jul-17 01:01N 62°59' W 008°60'1 1.4 12.0
2014-Jul-17 00:01N 62°58' W 009°03'1 1.4 12.0
2014-Jul-16 23:01N 62°57' W 009°05'1 1.1 12.0
2014-Jul-16 22:01N 62°57' W 009°06'1 0.9 12.0
2014-Jul-16 21:01N 62°56' W 009°07'1 0.6 12.0
2014-Jul-16 20:01N 62°55' W 009°06'1 0.7 12.0
2014-Jul-16 19:01N 62°55' W 009°05'1 0.8 12.0
2014-Jul-16 18:01N 62°55' W 009°03'2 0.8 12.0
2014-Jul-16 16:01N 62°57' W 009°01'1 0.7 12.0
2014-Jul-16 15:01N 62°57' W 009°02'1 0.9 12.0
2014-Jul-16 14:01N 62°58' W 009°03'1 1.2 12.0
2014-Jul-16 13:01N 62°58' W 009°06'2 1.5 12.0
2014-Jul-16 12:01N 62°57' W 009°09'2 1.6 11.9
2014-Jul-16 11:01N 62°56' W 009°11'1 1.3 11.9
2014-Jul-16 10:01N 62°54' W 009°12'1 1.1 11.8
2014-Jul-16 09:01N 62°53' W 009°12'1 0.9 11.9
2014-Jul-16 08:01N 62°52' W 009°12'1 0.6 11.9
2014-Jul-16 07:01N 62°52' W 009°11'1 0.7 11.9
2014-Jul-16 06:01N 62°51' W 009°10'1 0.7 11.9
2014-Jul-16 05:01N 62°51' W 009°09'0 0.4 12.1
2014-Jul-16 04:01N 62°51' W 009°08'0 0.4 12.1
2014-Jul-16 03:01N 62°52' W 009°08'1 0.7 12.2
2014-Jul-16 02:01N 62°52' W 009°09'1 1.4 12.1
2014-Jul-16 01:01N 62°52' W 009°12'2 2.0 12.2
2014-Jul-16 00:01N 62°51' W 009°16'2 2.2 12.3
2014-Jul-15 23:01N 62°49' W 009°19'2 2.2 12.3
2014-Jul-15 22:01N 62°47' W 009°21'2 1.9 12.4
2014-Jul-15 21:01N 62°45' W 009°22'2 1.5 12.4
2014-Jul-15 20:01N 62°44' W 009°22'1 1.1 12.4
2014-Jul-15 19:01N 62°43' W 009°21'1 0.9 12.4
2014-Jul-15 18:01N 62°42' W 009°19'1 0.7 12.4
2014-Jul-15 17:01N 62°42' W 009°18'1 0.6 12.3
2014-Jul-15 16:01N 62°43' W 009°17'0 0.4 12.3
2014-Jul-15 15:01N 62°43' W 009°17'1 0.6 12.3
2014-Jul-15 14:01N 62°44' W 009°18'1 0.9 12.2
2014-Jul-15 13:01N 62°43' W 009°20'1 1.2 12.2
2014-Jul-15 12:01N 62°43' W 009°22'1 1.4 12.1
2014-Jul-15 11:01N 62°42' W 009°24'1 1.5 12.1
2014-Jul-15 10:01N 62°41' W 009°27'1 1.3 12.1
2014-Jul-15 09:01N 62°40' W 009°28'1 0.9 12.1
2014-Jul-15 08:01N 62°39' W 009°28'1 0.6 12.0
2014-Jul-15 07:01N 62°38' W 009°28'0 0.4 12.0
2014-Jul-15 06:01N 62°38' W 009°27'1 0.6 12.0
2014-Jul-15 05:01N 62°38' W 009°26'1 0.5 12.0
2014-Jul-15 04:01N 62°39' W 009°25'1 0.5 12.0
2014-Jul-15 03:01N 62°39' W 009°25'1 0.5 12.0
2014-Jul-15 02:01N 62°39' W 009°25'1 0.7 12.0
2014-Jul-15 01:01N 62°40' W 009°26'1 0.9 12.0
2014-Jul-15 00:01N 62°40' W 009°28'1 1.1 12.0
2014-Jul-14 23:01N 62°39' W 009°30'1 1.3 12.0
2014-Jul-14 22:01N 62°38' W 009°32'1 1.2 12.0
2014-Jul-14 21:01N 62°37' W 009°34'1 1.0 12.0
2014-Jul-14 20:01N 62°36' W 009°35'1 0.7 12.0
2014-Jul-14 19:01N 62°36' W 009°35'0 0.3 12.1
2014-Jul-14 18:01N 62°35' W 009°35'0 0.4 12.1
2014-Jul-14 17:01N 62°35' W 009°34'0 0.5 12.1
2014-Jul-14 16:01N 62°36' W 009°34'0 0.4 12.0
2014-Jul-14 15:01N 62°36' W 009°34'0 0.4 12.0
2014-Jul-14 14:01N 62°37' W 009°34'0 0.5 12.0
2014-Jul-14 13:01N 62°37' W 009°34'1 0.7 12.0
2014-Jul-14 12:01N 62°37' W 009°36'1 0.9 11.9
2014-Jul-14 11:01N 62°37' W 009°37'1 0.9 11.9
2014-Jul-14 10:01N 62°36' W 009°39'1 1.1 11.8
2014-Jul-14 09:01N 62°35' W 009°41'1 0.9 11.8
2014-Jul-14 08:01N 62°35' W 009°42'0 0.5 11.8
2014-Jul-14 07:01N 62°34' W 009°42'0 0.1 11.7
2014-Jul-14 06:01N 62°34' W 009°43'0 0.1 11.7
2014-Jul-14 05:01N 62°34' W 009°42'0 0.3 11.7
2014-Jul-14 04:01N 62°34' W 009°42'1 0.5 11.7
2014-Jul-14 03:01N 62°35' W 009°41'1 0.7 11.7
2014-Jul-14 02:01N 62°36' W 009°41'1 0.7 11.7
2014-Jul-14 01:01N 62°36' W 009°42'1 0.7 11.7
2014-Jul-14 00:01N 62°36' W 009°43'1 0.9 11.7
2014-Jul-13 23:01N 62°36' W 009°45'1 1.0 11.8
2014-Jul-13 22:01N 62°36' W 009°47'1 1.1 11.8
2014-Jul-13 21:01N 62°36' W 009°50'1 0.9 11.8
2014-Jul-13 20:01N 62°35' W 009°51'1 0.8 11.9
2014-Jul-13 19:01N 62°35' W 009°53'1 0.7 11.9
2014-Jul-13 18:01N 62°35' W 009°54'0 0.5 11.9
2014-Jul-13 17:01N 62°35' W 009°55'0 0.1 11.9
2014-Jul-13 16:01N 62°35' W 009°55'0 0.2 11.9
2014-Jul-13 15:01N 62°35' W 009°55'1 0.6 11.9
2014-Jul-13 14:01N 62°36' W 009°55'1 0.9 11.8
2014-Jul-13 13:01N 62°37' W 009°55'1 1.0 11.9
2014-Jul-13 12:01N 62°37' W 009°57'1 1.1 11.9
2014-Jul-13 11:01N 62°38' W 009°59'   11.7

Dump ship's entire track history